Aérodrome :
LOGIN :

S'inscrire | Disclaimer

   EN    FR    IT 

 










Légende :    VFR   VFR Marginal   IFR   IFR Intensif   IFR Très Intensif
Visi : 
Plafond : 
>= 8 km
>= 3000ft
5 à 8 km
1000 à 3000 ft
1500m à 5 km
500 à 1000 ft
800 à 1500m
200 à 500 ft
< 800m
< 200 ft
Symboles :   Orages  Brouillard  Fortes neiges  Fortes précipitations  Vent > 20 kt
SIGMETs :   Divers  Orages  Givrage  Turbulence  Onde Orograph.  Cendres Volcan.







- Altitude de l'aérodrome : 286 ft
- Code IATA : FFD


EGVA - RAF Fairford

DERNIER METAR :
  • 231506Z AUTO 23005KT 9999 SCT008 OVC013 16/14 A2999 RMK AO2 CIG 007V013 SLP159 $

METARs EXPIRÉS :
  • 231501Z AUTO 24007KT 9999 BKN008 OVC013 16/15 A2999 RMK AO2 SLP159 $
  • 231426Z AUTO 23007KT 9999 OVC009 16/14 A2999 RMK AO2 SLP159 $
  • 231356Z AUTO 23007KT 9999 OVC011 16/14 A2999 RMK AO2 SLP159 T01600138 $
  • 231256Z AUTO 23007KT 9999 OVC011 16/14 A2999 RMK AO2 SLP159 T01590137 $

Prévision TAF périmée.
Pas de NOTAMs connus pour ce terrain.



MET'MAP, la Météo Aéronautique d'un coup d'oeil ! - Copyright ORBIFLY Décembre 2007 - Disclaimer

ORBIFLY MET'MAP TEAM :

Programmation & Développement : Alexandra Zaïnal
Conception & Développement : Baudouin d'Aumeries
Co-Programmation & Développement : Marc-Olivier Méhu
Soutien technique & logistique : Manuel Goepfert

Contact : metmap@orbifly.com




SOURCES & CREDITS :

   NOAA